Terminal Aerodrome Forecast
Issued by NWS

Home | Current Version | Previous Version | Text Only | Print | Product List | Glossary On
Versions: 1 2 3 4 5 6 7 8 9 10 11 12 13 14 15 16 17 18 19 20 21 22 23 24 25 26 27 28 29 30 31 32
000
FTUS43 KILX 281700
TAFDEC
TAF
KDEC 281721Z 2818/2918 33012G18KT P6SM SCT040
     FM282200 35008KT P6SM FEW040
     FM290200 VRB03KT P6SM SKC
     FM291500 30008KT P6SM SCT040=

USA.gov is the U.S. government's official web portal to all federal, state and local government web resources and services.